createdAt,value
2019-05-01T00:08:59.133Z,99.90
2019-05-01T00:13:53.052Z,99.90
2019-05-01T00:18:46.820Z,99.90
2019-05-01T00:23:42.263Z,99.90
2019-05-01T00:28:35.960Z,99.90
2019-05-01T00:33:31.408Z,99.90
2019-05-01T00:38:26.235Z,99.90
2019-05-01T00:43:21.513Z,99.90
2019-05-01T00:48:15.475Z,99.90
2019-05-01T00:53:09.291Z,99.90
2019-05-01T00:58:10.954Z,99.90
2019-05-01T01:03:06.615Z,99.90
2019-05-01T01:08:00.410Z,99.90
2019-05-01T01:12:54.510Z,99.90
2019-05-01T01:17:48.292Z,99.90
2019-05-01T01:22:42.492Z,99.90
2019-05-01T01:27:36.921Z,99.90
2019-05-01T01:32:30.724Z,99.90
2019-05-01T01:37:24.778Z,99.90
2019-05-01T01:42:19.458Z,99.90
2019-05-01T01:47:13.569Z,99.90
2019-05-01T01:52:07.638Z,99.90
2019-05-01T01:57:04.160Z,99.90
2019-05-01T02:01:59.825Z,99.90
2019-05-01T02:06:53.712Z,99.90
2019-05-01T02:11:48.754Z,99.90
2019-05-01T02:16:43.833Z,99.90
2019-05-01T02:21:37.961Z,99.90
2019-05-01T02:26:39.518Z,99.90
2019-05-01T02:31:36.430Z,99.90
2019-05-01T02:36:31.578Z,99.90
2019-05-01T02:41:28.559Z,99.90
2019-05-01T02:46:25.262Z,99.90
2019-05-01T02:51:20.513Z,99.90
2019-05-01T02:56:36.534Z,99.90
2019-05-01T03:01:45.689Z,99.90
2019-05-01T03:06:29.077Z,99.90
2019-05-01T03:11:23.146Z,99.90
2019-05-01T03:16:18.885Z,99.90
2019-05-01T03:21:14.480Z,99.90
2019-05-01T03:26:08.739Z,99.90
2019-05-01T03:31:05.872Z,99.90
2019-05-01T03:36:03.679Z,99.90
2019-05-01T03:40:57.753Z,99.90
2019-05-01T03:45:53.056Z,99.90
2019-05-01T03:50:47.773Z,99.90
2019-05-01T03:55:42.368Z,99.90
2019-05-01T04:00:41.192Z,99.90
2019-05-01T04:05:35.113Z,99.90
2019-05-01T04:10:28.995Z,99.90
2019-05-01T04:15:23.775Z,99.90
2019-05-01T04:20:18.005Z,99.90
2019-05-01T04:25:12.644Z,99.90
2019-05-01T04:30:08.924Z,99.90
2019-05-01T04:35:21.678Z,99.90
2019-05-01T04:40:18.706Z,99.90
2019-05-01T04:45:12.595Z,99.90
2019-05-01T04:50:07.634Z,99.90
2019-05-01T04:59:55.554Z,99.90
2019-05-01T05:04:49.667Z,99.90
2019-05-01T05:09:45.360Z,99.90
2019-05-01T05:14:46.571Z,99.90
2019-05-01T05:19:40.688Z,99.90
2019-05-01T05:24:34.683Z,99.90
2019-05-01T05:29:29.202Z,99.90
2019-05-01T05:34:29.264Z,99.90
2019-05-01T05:39:27.508Z,99.90
2019-05-01T05:44:23.243Z,99.90
2019-05-01T05:49:17.747Z,99.90
2019-05-01T05:54:33.267Z,99.90
2019-05-01T06:04:44.040Z,99.90
2019-05-01T06:09:44.720Z,99.90
2019-05-01T06:14:47.112Z,99.90
2019-05-01T06:19:45.915Z,99.90
2019-05-01T06:24:42.350Z,99.90
2019-05-01T06:29:37.308Z,99.90
2019-05-01T06:34:31.870Z,99.90
2019-05-01T06:39:27.308Z,99.90
2019-05-01T06:44:23.947Z,99.90
2019-05-01T06:49:36.962Z,99.90
2019-05-01T06:54:32.106Z,99.90
2019-05-01T06:59:31.478Z,99.90
2019-05-01T07:04:23.799Z,99.90
2019-05-01T07:09:27.760Z,99.90
2019-05-01T07:14:16.352Z,99.90
2019-05-01T07:19:10.603Z,99.90
2019-05-01T07:24:07.650Z,99.90
2019-05-01T07:29:09.526Z,99.90
2019-05-01T07:34:16.039Z,99.90
2019-05-01T07:38:59.942Z,99.90
2019-05-01T07:44:00.990Z,99.90
2019-05-01T07:48:55.135Z,99.90
2019-05-01T07:53:47.883Z,99.90
2019-05-01T07:58:47.378Z,99.90
2019-05-01T08:03:42.668Z,99.90
2019-05-01T08:08:39.709Z,99.90
2019-05-01T08:13:30.594Z,99.90
2019-05-01T08:18:36.118Z,99.90
2019-05-01T08:23:29.351Z,99.90
2019-05-01T08:28:32.057Z,99.90
2019-05-01T08:33:40.199Z,99.90
2019-05-01T08:38:35.348Z,99.90
2019-05-01T08:43:29.494Z,99.90
2019-05-01T08:48:25.354Z,99.90
2019-05-01T08:53:22.063Z,99.90
2019-05-01T08:58:14.295Z,99.20
2019-05-01T09:03:13.530Z,95.30
2019-05-01T09:08:09.274Z,85.90
2019-05-01T09:13:04.978Z,79.00
2019-05-01T09:17:58.721Z,76.20
2019-05-01T09:22:52.711Z,70.80
2019-05-01T09:27:54.034Z,74.90
2019-05-01T09:32:54.105Z,80.70
2019-05-01T09:37:43.696Z,86.50
2019-05-01T09:42:37.804Z,93.30
2019-05-01T09:47:33.573Z,98.40
2019-05-01T09:52:29.887Z,99.90
2019-05-01T09:57:23.959Z,99.90
2019-05-01T10:02:19.662Z,94.40
2019-05-01T10:07:14.019Z,64.50
2019-05-01T10:12:11.618Z,62.30
2019-05-01T10:17:05.387Z,71.90
2019-05-01T10:22:02.470Z,70.60
2019-05-01T10:27:00.207Z,73.00
2019-05-01T10:31:56.171Z,80.10
2019-05-01T10:36:54.635Z,84.10
2019-05-01T10:46:41.207Z,54.20
2019-05-01T10:51:35.118Z,38.70
2019-05-01T10:56:29.001Z,33.70
2019-05-01T11:01:25.339Z,31.70
2019-05-01T11:06:19.488Z,29.90
2019-05-01T11:11:16.401Z,29.30
2019-05-01T11:16:12.390Z,30.50
2019-05-01T11:21:06.592Z,32.30
2019-05-01T11:26:01.259Z,36.30
2019-05-01T11:30:55.847Z,40.90
2019-05-01T11:36:08.975Z,43.10
2019-05-01T11:40:59.996Z,48.10
2019-05-01T11:45:53.801Z,49.80
2019-05-01T11:50:47.767Z,50.80
2019-05-01T11:55:41.667Z,54.20
2019-05-01T12:00:35.559Z,56.20
2019-05-01T12:05:30.419Z,56.80
2019-05-01T12:10:30.455Z,58.40
2019-05-01T12:15:24.447Z,58.50
2019-05-01T12:20:22.920Z,57.10
2019-05-01T12:25:19.332Z,54.40
2019-05-01T12:30:15.346Z,52.30
2019-05-01T12:35:10.386Z,51.10
2019-05-01T12:40:09.547Z,45.50
2019-05-01T12:45:04.192Z,44.30
2019-05-01T12:49:58.296Z,45.30
2019-05-01T12:55:03.181Z,48.30
2019-05-01T13:00:08.117Z,50.40
2019-05-01T13:04:52.867Z,52.20
2019-05-01T13:09:46.578Z,56.20
2019-05-01T13:14:40.496Z,55.40
2019-05-01T13:19:34.861Z,52.00
2019-05-01T13:24:28.744Z,50.40
2019-05-01T13:29:24.195Z,47.90
2019-05-01T13:34:18.383Z,49.30
2019-05-01T13:39:13.183Z,51.70
2019-05-01T13:44:07.465Z,50.90
2019-05-01T13:49:02.876Z,46.70
2019-05-01T13:58:52.216Z,46.00
2019-05-01T14:03:46.317Z,46.30
2019-05-01T14:08:41.222Z,49.30
2019-05-01T14:13:34.930Z,53.10
2019-05-01T14:28:17.754Z,56.30
2019-05-01T14:33:11.457Z,50.70
2019-05-01T14:38:08.565Z,49.90
2019-05-01T14:43:05.215Z,49.90
2019-05-01T14:47:59.272Z,50.50
2019-05-01T14:52:53.335Z,51.50
2019-05-01T14:57:47.400Z,52.00
2019-05-01T15:02:41.171Z,53.30
2019-05-01T15:07:43.221Z,54.20
2019-05-01T15:12:31.012Z,53.60
2019-05-01T15:17:26.747Z,54.50
2019-05-01T15:22:20.600Z,56.80
2019-05-01T15:27:14.500Z,56.10
2019-05-01T15:32:08.523Z,56.90
2019-05-01T15:37:02.390Z,53.80
2019-05-01T15:42:03.861Z,54.30
2019-05-01T15:46:57.752Z,56.10
2019-05-01T15:51:51.586Z,58.50
2019-05-01T15:56:45.557Z,59.70
2019-05-01T16:01:39.397Z,60.80
2019-05-01T16:06:35.901Z,60.90
2019-05-01T16:11:36.978Z,62.70
2019-05-01T16:16:31.036Z,65.30
2019-05-01T16:21:24.944Z,66.60
2019-05-01T16:26:22.917Z,68.90
2019-05-01T16:31:17.364Z,70.20
2019-05-01T16:36:12.635Z,72.80
2019-05-01T16:41:08.113Z,71.90
2019-05-01T16:46:02.263Z,72.80
2019-05-01T16:50:56.117Z,76.40
2019-05-01T16:55:49.914Z,76.80
2019-05-01T17:01:00.249Z,75.90
2019-05-01T17:05:55.855Z,75.60
2019-05-01T17:10:51.307Z,78.00
2019-05-01T17:15:49.828Z,78.70
2019-05-01T17:20:43.690Z,80.50
2019-05-01T17:25:39.400Z,83.00
2019-05-01T17:30:38.823Z,85.80
2019-05-01T17:35:32.616Z,89.10
2019-05-01T17:40:26.828Z,91.30
2019-05-01T17:45:20.588Z,92.70
2019-05-01T17:50:16.403Z,93.80
2019-05-01T17:55:10.866Z,94.70
2019-05-01T18:00:26.692Z,95.00
2019-05-01T18:05:39.913Z,95.50
2019-05-01T18:10:34.114Z,96.00
2019-05-01T18:15:29.506Z,96.10
2019-05-01T18:20:23.628Z,96.80
2019-05-01T18:25:33.075Z,97.80
2019-05-01T18:30:26.728Z,98.70
2019-05-01T18:35:20.643Z,99.50
2019-05-01T18:40:25.710Z,99.90
2019-05-01T18:45:44.427Z,99.90
2019-05-01T18:50:38.266Z,99.90
2019-05-01T18:55:32.092Z,99.90
2019-05-01T19:00:25.906Z,99.90
2019-05-01T19:05:20.021Z,99.90
2019-05-01T19:10:13.953Z,99.90
2019-05-01T19:15:07.767Z,99.90
2019-05-01T19:20:01.677Z,99.90
2019-05-01T19:24:57.263Z,99.90
2019-05-01T19:29:51.374Z,99.90
2019-05-01T19:34:45.244Z,99.90
2019-05-01T19:39:43.848Z,99.90
2019-05-01T19:44:35.399Z,99.90
2019-05-01T19:49:31.787Z,99.90
2019-05-01T19:54:27.933Z,99.90
2019-05-01T19:59:21.003Z,99.90
2019-05-01T20:04:15.482Z,99.90
2019-05-01T20:09:10.911Z,99.90
2019-05-01T20:14:07.791Z,99.90
2019-05-01T20:19:03.353Z,99.90
2019-05-01T20:23:58.700Z,99.90
2019-05-01T20:28:52.520Z,99.90
2019-05-01T20:33:47.180Z,99.90
2019-05-01T20:38:41.194Z,99.90
2019-05-01T20:43:38.113Z,99.90
2019-05-01T20:48:31.157Z,99.90
2019-05-01T20:53:25.192Z,99.90
2019-05-01T20:58:20.410Z,99.90
2019-05-01T21:08:28.971Z,99.90
2019-05-01T21:13:23.474Z,99.90
2019-05-01T21:18:20.918Z,99.90
2019-05-01T21:23:14.435Z,99.90
2019-05-01T21:28:08.831Z,99.90
2019-05-01T21:33:09.696Z,99.90
2019-05-01T21:38:01.794Z,99.90
2019-05-01T21:42:55.851Z,99.90
2019-05-01T21:47:50.411Z,99.90
2019-05-01T21:52:45.137Z,99.90
2019-05-01T21:57:41.935Z,99.90
2019-05-01T22:02:35.722Z,99.90
2019-05-01T22:07:29.883Z,99.90
2019-05-01T22:12:23.745Z,99.90
2019-05-01T22:17:22.294Z,99.90
2019-05-01T22:22:29.798Z,99.90
2019-05-01T22:27:37.150Z,99.90
2019-05-01T22:32:35.481Z,99.90
2019-05-01T22:37:30.609Z,99.90
2019-05-01T22:42:24.459Z,99.90
2019-05-01T22:47:18.776Z,99.90
2019-05-01T22:52:12.664Z,99.90
2019-05-01T22:57:06.854Z,99.90
2019-05-01T23:02:02.558Z,99.90
2019-05-01T23:06:56.363Z,99.90
2019-05-01T23:11:50.594Z,99.90
2019-05-01T23:16:46.307Z,99.90
2019-05-01T23:21:39.999Z,99.90
2019-05-01T23:26:33.972Z,99.90
2019-05-01T23:31:27.800Z,99.90
2019-05-01T23:36:23.714Z,99.90
2019-05-01T23:41:17.435Z,99.90
2019-05-01T23:46:11.276Z,99.90
2019-05-01T23:51:05.408Z,99.90
2019-05-01T23:56:02.102Z,99.90
